sensor_id;sensor_type;location;lat;lon;timestamp;P1;durP1;ratioP1;P2;durP2;ratioP2
51925;SDS011;37952;51.938;15.480;2023-06-10T00:01:10;5.20;;;4.80;;
51925;SDS011;37952;51.938;15.480;2023-06-10T00:04:30;5.60;;;4.50;;
51925;SDS011;37952;51.938;15.480;2023-06-10T00:07:33;7.70;;;4.90;;
51925;SDS011;37952;51.938;15.480;2023-06-10T00:10:40;10.00;;;4.90;;
51925;SDS011;37952;51.938;15.480;2023-06-10T00:13:43;5.40;;;4.90;;
51925;SDS011;37952;51.938;15.480;2023-06-10T00:16:45;5.50;;;5.00;;
51925;SDS011;37952;51.938;15.480;2023-06-10T00:19:48;6.00;;;5.40;;
51925;SDS011;37952;51.938;15.480;2023-06-10T00:22:53;5.90;;;5.40;;
51925;SDS011;37952;51.938;15.480;2023-06-10T00:25:55;6.40;;;5.90;;
51925;SDS011;37952;51.938;15.480;2023-06-10T00:28:59;6.50;;;5.20;;
51925;SDS011;37952;51.938;15.480;2023-06-10T00:32:02;5.70;;;5.30;;
51925;SDS011;37952;51.938;15.480;2023-06-10T00:35:05;5.60;;;5.20;;
51925;SDS011;37952;51.938;15.480;2023-06-10T00:38:09;5.80;;;5.30;;
51925;SDS011;37952;51.938;15.480;2023-06-10T00:41:13;6.10;;;5.60;;
51925;SDS011;37952;51.938;15.480;2023-06-10T00:44:16;8.90;;;5.70;;
51925;SDS011;37952;51.938;15.480;2023-06-10T00:47:19;7.80;;;6.00;;
51925;SDS011;37952;51.938;15.480;2023-06-10T00:50:23;11.50;;;6.50;;
51925;SDS011;37952;51.938;15.480;2023-06-10T00:53:26;9.20;;;6.70;;
51925;SDS011;37952;51.938;15.480;2023-06-10T00:56:30;7.50;;;6.50;;
51925;SDS011;37952;51.938;15.480;2023-06-10T00:59:35;6.80;;;6.30;;
51925;SDS011;37952;51.938;15.480;2023-06-10T01:02:38;7.20;;;6.60;;
51925;SDS011;37952;51.938;15.480;2023-06-10T01:05:41;7.50;;;6.60;;
51925;SDS011;37952;51.938;15.480;2023-06-10T01:12:19;8.10;;;7.40;;
51925;SDS011;37952;51.938;15.480;2023-06-10T01:15:31;7.10;;;6.60;;
51925;SDS011;37952;51.938;15.480;2023-06-10T01:18:34;7.30;;;6.80;;
51925;SDS011;37952;51.938;15.480;2023-06-10T01:21:37;8.20;;;6.20;;
51925;SDS011;37952;51.938;15.480;2023-06-10T01:24:41;7.00;;;5.80;;
51925;SDS011;37952;51.938;15.480;2023-06-10T01:27:46;9.80;;;6.40;;
51925;SDS011;37952;51.938;15.480;2023-06-10T01:34:19;6.10;;;5.60;;
51925;SDS011;37952;51.938;15.480;2023-06-10T01:37:26;7.20;;;6.60;;
51925;SDS011;37952;51.938;15.480;2023-06-10T01:40:29;7.70;;;6.10;;
51925;SDS011;37952;51.938;15.480;2023-06-10T01:43:33;8.00;;;6.60;;
51925;SDS011;37952;51.938;15.480;2023-06-10T01:46:37;6.80;;;6.30;;
51925;SDS011;37952;51.938;15.480;2023-06-10T01:49:39;6.20;;;5.80;;
51925;SDS011;37952;51.938;15.480;2023-06-10T01:52:42;7.80;;;6.80;;
51925;SDS011;37952;51.938;15.480;2023-06-10T01:55:45;13.00;;;7.50;;
51925;SDS011;37952;51.938;15.480;2023-06-10T01:58:48;9.10;;;7.40;;
51925;SDS011;37952;51.938;15.480;2023-06-10T02:01:50;10.20;;;7.20;;
51925;SDS011;37952;51.938;15.480;2023-06-10T02:04:53;7.70;;;7.20;;
51925;SDS011;37952;51.938;15.480;2023-06-10T02:07:56;8.20;;;7.50;;
51925;SDS011;37952;51.938;15.480;2023-06-10T02:10:59;14.10;;;7.30;;
51925;SDS011;37952;51.938;15.480;2023-06-10T02:14:01;8.20;;;7.30;;
51925;SDS011;37952;51.938;15.480;2023-06-10T02:17:04;9.90;;;7.10;;
51925;SDS011;37952;51.938;15.480;2023-06-10T02:20:07;8.10;;;7.50;;
51925;SDS011;37952;51.938;15.480;2023-06-10T02:23:13;8.20;;;7.20;;
51925;SDS011;37952;51.938;15.480;2023-06-10T02:26:15;7.50;;;6.80;;
51925;SDS011;37952;51.938;15.480;2023-06-10T02:29:18;6.60;;;6.10;;
51925;SDS011;37952;51.938;15.480;2023-06-10T02:32:21;10.10;;;6.50;;
51925;SDS011;37952;51.938;15.480;2023-06-10T02:35:24;10.30;;;6.80;;
51925;SDS011;37952;51.938;15.480;2023-06-10T02:38:26;9.40;;;6.70;;
51925;SDS011;37952;51.938;15.480;2023-06-10T02:41:29;7.70;;;7.00;;
51925;SDS011;37952;51.938;15.480;2023-06-10T02:44:32;7.50;;;6.70;;
51925;SDS011;37952;51.938;15.480;2023-06-10T02:47:37;7.40;;;6.70;;
51925;SDS011;37952;51.938;15.480;2023-06-10T02:50:41;8.20;;;7.70;;
51925;SDS011;37952;51.938;15.480;2023-06-10T02:53:44;7.50;;;6.90;;
51925;SDS011;37952;51.938;15.480;2023-06-10T02:56:46;7.00;;;6.60;;
51925;SDS011;37952;51.938;15.480;2023-06-10T02:59:50;8.80;;;7.00;;
51925;SDS011;37952;51.938;15.480;2023-06-10T03:02:53;9.60;;;6.40;;
51925;SDS011;37952;51.938;15.480;2023-06-10T03:06:00;7.30;;;6.80;;
51925;SDS011;37952;51.938;15.480;2023-06-10T03:09:03;7.60;;;6.30;;
51925;SDS011;37952;51.938;15.480;2023-06-10T03:12:07;8.00;;;7.20;;
51925;SDS011;37952;51.938;15.480;2023-06-10T03:15:10;9.90;;;6.70;;
51925;SDS011;37952;51.938;15.480;2023-06-10T03:18:14;8.20;;;7.70;;
51925;SDS011;37952;51.938;15.480;2023-06-10T03:21:17;8.40;;;7.10;;
51925;SDS011;37952;51.938;15.480;2023-06-10T03:24:20;9.60;;;6.90;;
51925;SDS011;37952;51.938;15.480;2023-06-10T03:27:23;7.60;;;7.00;;
51925;SDS011;37952;51.938;15.480;2023-06-10T03:30:26;12.50;;;6.90;;
51925;SDS011;37952;51.938;15.480;2023-06-10T03:33:30;11.40;;;7.10;;
51925;SDS011;37952;51.938;15.480;2023-06-10T03:36:33;8.00;;;7.30;;
51925;SDS011;37952;51.938;15.480;2023-06-10T03:39:36;8.70;;;7.80;;
51925;SDS011;37952;51.938;15.480;2023-06-10T03:42:39;8.70;;;8.00;;
51925;SDS011;37952;51.938;15.480;2023-06-10T03:45:42;9.20;;;8.30;;
51925;SDS011;37952;51.938;15.480;2023-06-10T03:48:44;9.10;;;8.10;;
51925;SDS011;37952;51.938;15.480;2023-06-10T03:51:47;9.40;;;8.70;;
51925;SDS011;37952;51.938;15.480;2023-06-10T03:54:50;9.10;;;8.20;;
51925;SDS011;37952;51.938;15.480;2023-06-10T03:57:53;9.20;;;8.30;;
51925;SDS011;37952;51.938;15.480;2023-06-10T04:00:56;8.60;;;8.10;;
51925;SDS011;37952;51.938;15.480;2023-06-10T04:03:58;9.50;;;8.70;;
51925;SDS011;37952;51.938;15.480;2023-06-10T04:07:01;9.50;;;8.40;;
51925;SDS011;37952;51.938;15.480;2023-06-10T04:10:04;13.60;;;8.40;;
51925;SDS011;37952;51.938;15.480;2023-06-10T04:13:07;8.70;;;8.00;;
51925;SDS011;37952;51.938;15.480;2023-06-10T04:16:11;12.30;;;8.70;;
51925;SDS011;37952;51.938;15.480;2023-06-10T04:19:14;12.20;;;8.80;;
51925;SDS011;37952;51.938;15.480;2023-06-10T04:22:18;10.70;;;9.50;;
51925;SDS011;37952;51.938;15.480;2023-06-10T04:25:22;9.90;;;8.90;;
51925;SDS011;37952;51.938;15.480;2023-06-10T04:28:26;9.20;;;8.40;;
51925;SDS011;37952;51.938;15.480;2023-06-10T04:31:29;9.70;;;8.90;;
51925;SDS011;37952;51.938;15.480;2023-06-10T04:34:34;10.30;;;9.40;;
51925;SDS011;37952;51.938;15.480;2023-06-10T04:37:38;12.10;;;9.10;;
51925;SDS011;37952;51.938;15.480;2023-06-10T04:40:41;9.10;;;8.40;;
51925;SDS011;37952;51.938;15.480;2023-06-10T04:43:43;9.70;;;8.70;;
51925;SDS011;37952;51.938;15.480;2023-06-10T04:46:46;10.10;;;9.20;;
51925;SDS011;37952;51.938;15.480;2023-06-10T04:49:50;11.40;;;8.30;;
51925;SDS011;37952;51.938;15.480;2023-06-10T04:52:54;10.20;;;9.00;;
51925;SDS011;37952;51.938;15.480;2023-06-10T04:55:59;9.10;;;8.30;;
51925;SDS011;37952;51.938;15.480;2023-06-10T04:59:02;9.20;;;8.50;;
51925;SDS011;37952;51.938;15.480;2023-06-10T05:02:05;8.70;;;8.10;;
51925;SDS011;37952;51.938;15.480;2023-06-10T05:05:08;8.20;;;7.60;;
51925;SDS011;37952;51.938;15.480;2023-06-10T05:08:25;9.70;;;8.90;;
51925;SDS011;37952;51.938;15.480;2023-06-10T05:11:28;9.10;;;7.60;;
51925;SDS011;37952;51.938;15.480;2023-06-10T05:14:31;7.90;;;7.00;;
51925;SDS011;37952;51.938;15.480;2023-06-10T05:17:34;9.00;;;8.20;;
51925;SDS011;37952;51.938;15.480;2023-06-10T05:20:39;7.60;;;6.90;;
51925;SDS011;37952;51.938;15.480;2023-06-10T05:23:42;7.90;;;7.10;;
51925;SDS011;37952;51.938;15.480;2023-06-10T05:26:45;8.50;;;7.80;;
51925;SDS011;37952;51.938;15.480;2023-06-10T05:29:48;9.70;;;6.90;;
51925;SDS011;37952;51.938;15.480;2023-06-10T05:32:52;7.90;;;7.30;;
51925;SDS011;37952;51.938;15.480;2023-06-10T05:35:56;8.30;;;7.00;;
51925;SDS011;37952;51.938;15.480;2023-06-10T05:38:59;7.40;;;6.70;;
51925;SDS011;37952;51.938;15.480;2023-06-10T05:42:01;6.90;;;6.40;;
51925;SDS011;37952;51.938;15.480;2023-06-10T05:45:05;9.40;;;6.40;;
51925;SDS011;37952;51.938;15.480;2023-06-10T05:48:09;11.00;;;6.30;;
51925;SDS011;37952;51.938;15.480;2023-06-10T05:51:12;9.10;;;6.50;;
51925;SDS011;37952;51.938;15.480;2023-06-10T05:54:15;12.70;;;7.00;;
51925;SDS011;37952;51.938;15.480;2023-06-10T05:57:18;7.30;;;6.60;;
51925;SDS011;37952;51.938;15.480;2023-06-10T06:00:21;6.90;;;6.30;;
51925;SDS011;37952;51.938;15.480;2023-06-10T06:03:24;8.30;;;6.50;;
51925;SDS011;37952;51.938;15.480;2023-06-10T06:06:28;8.40;;;6.90;;
51925;SDS011;37952;51.938;15.480;2023-06-10T06:09:30;7.50;;;6.30;;
51925;SDS011;37952;51.938;15.480;2023-06-10T06:12:33;11.70;;;7.10;;
51925;SDS011;37952;51.938;15.480;2023-06-10T06:15:36;9.60;;;7.30;;
51925;SDS011;37952;51.938;15.480;2023-06-10T06:18:38;9.70;;;6.60;;
51925;SDS011;37952;51.938;15.480;2023-06-10T06:21:41;6.20;;;5.60;;
51925;SDS011;37952;51.938;15.480;2023-06-10T06:24:44;8.00;;;6.50;;
51925;SDS011;37952;51.938;15.480;2023-06-10T06:27:47;6.80;;;5.60;;
51925;SDS011;37952;51.938;15.480;2023-06-10T06:30:49;7.40;;;5.70;;
51925;SDS011;37952;51.938;15.480;2023-06-10T06:33:52;7.00;;;6.30;;
51925;SDS011;37952;51.938;15.480;2023-06-10T06:37:10;6.50;;;5.90;;
51925;SDS011;37952;51.938;15.480;2023-06-10T06:40:13;13.20;;;6.20;;
51925;SDS011;37952;51.938;15.480;2023-06-10T06:43:16;6.80;;;6.20;;
51925;SDS011;37952;51.938;15.480;2023-06-10T06:46:20;12.10;;;5.80;;
51925;SDS011;37952;51.938;15.480;2023-06-10T06:49:24;7.70;;;5.20;;
51925;SDS011;37952;51.938;15.480;2023-06-10T06:52:27;8.00;;;6.00;;
51925;SDS011;37952;51.938;15.480;2023-06-10T06:55:31;6.90;;;5.80;;
51925;SDS011;37952;51.938;15.480;2023-06-10T06:58:34;7.70;;;5.80;;
51925;SDS011;37952;51.938;15.480;2023-06-10T07:01:36;6.20;;;5.50;;
51925;SDS011;37952;51.938;15.480;2023-06-10T07:04:39;6.10;;;5.60;;
51925;SDS011;37952;51.938;15.480;2023-06-10T07:07:43;9.40;;;5.60;;
51925;SDS011;37952;51.938;15.480;2023-06-10T07:10:46;6.00;;;5.50;;
51925;SDS011;37952;51.938;15.480;2023-06-10T07:13:49;5.40;;;4.90;;
51925;SDS011;37952;51.938;15.480;2023-06-10T07:16:52;7.60;;;5.30;;
51925;SDS011;37952;51.938;15.480;2023-06-10T07:19:55;12.70;;;5.50;;
51925;SDS011;37952;51.938;15.480;2023-06-10T07:23:00;5.70;;;5.20;;
51925;SDS011;37952;51.938;15.480;2023-06-10T07:26:03;7.90;;;5.20;;
51925;SDS011;37952;51.938;15.480;2023-06-10T07:29:05;7.20;;;5.80;;
51925;SDS011;37952;51.938;15.480;2023-06-10T07:32:08;6.80;;;5.20;;
51925;SDS011;37952;51.938;15.480;2023-06-10T07:35:11;7.60;;;5.20;;
51925;SDS011;37952;51.938;15.480;2023-06-10T07:38:14;7.50;;;5.50;;
51925;SDS011;37952;51.938;15.480;2023-06-10T07:41:17;8.00;;;5.00;;
51925;SDS011;37952;51.938;15.480;2023-06-10T07:44:20;5.40;;;4.80;;
51925;SDS011;37952;51.938;15.480;2023-06-10T07:47:23;6.20;;;5.20;;
51925;SDS011;37952;51.938;15.480;2023-06-10T07:50:26;8.90;;;5.00;;
51925;SDS011;37952;51.938;15.480;2023-06-10T07:53:28;6.50;;;5.10;;
51925;SDS011;37952;51.938;15.480;2023-06-10T07:56:31;14.70;;;4.90;;
51925;SDS011;37952;51.938;15.480;2023-06-10T07:59:34;5.70;;;5.20;;
51925;SDS011;37952;51.938;15.480;2023-06-10T08:02:37;8.20;;;5.70;;
51925;SDS011;37952;51.938;15.480;2023-06-10T08:05:40;6.00;;;4.90;;
51925;SDS011;37952;51.938;15.480;2023-06-10T08:08:43;7.40;;;4.90;;
51925;SDS011;37952;51.938;15.480;2023-06-10T08:11:46;5.20;;;4.40;;
51925;SDS011;37952;51.938;15.480;2023-06-10T08:14:50;5.30;;;4.60;;
51925;SDS011;37952;51.938;15.480;2023-06-10T08:17:52;12.20;;;4.40;;
51925;SDS011;37952;51.938;15.480;2023-06-10T08:20:55;5.30;;;4.90;;
51925;SDS011;37952;51.938;15.480;2023-06-10T08:23:58;7.40;;;4.80;;
51925;SDS011;37952;51.938;15.480;2023-06-10T08:27:01;5.20;;;4.80;;
51925;SDS011;37952;51.938;15.480;2023-06-10T08:30:04;8.20;;;4.80;;
51925;SDS011;37952;51.938;15.480;2023-06-10T08:33:08;12.70;;;5.20;;
51925;SDS011;37952;51.938;15.480;2023-06-10T08:36:11;22.80;;;5.30;;
51925;SDS011;37952;51.938;15.480;2023-06-10T08:39:13;12.20;;;4.60;;
51925;SDS011;37952;51.938;15.480;2023-06-10T08:45:26;7.00;;;4.90;;
51925;SDS011;37952;51.938;15.480;2023-06-10T08:48:34;5.20;;;4.70;;
51925;SDS011;37952;51.938;15.480;2023-06-10T08:51:40;4.90;;;4.50;;
51925;SDS011;37952;51.938;15.480;2023-06-10T08:54:57;10.50;;;5.00;;
51925;SDS011;37952;51.938;15.480;2023-06-10T08:58:02;5.70;;;5.20;;
51925;SDS011;37952;51.938;15.480;2023-06-10T09:01:06;6.80;;;4.90;;
51925;SDS011;37952;51.938;15.480;2023-06-10T09:04:09;9.10;;;4.80;;
51925;SDS011;37952;51.938;15.480;2023-06-10T09:07:13;9.50;;;4.80;;
51925;SDS011;37952;51.938;15.480;2023-06-10T09:10:17;6.00;;;4.30;;
51925;SDS011;37952;51.938;15.480;2023-06-10T09:13:20;5.40;;;5.00;;
51925;SDS011;37952;51.938;15.480;2023-06-10T09:16:24;4.70;;;4.40;;
51925;SDS011;37952;51.938;15.480;2023-06-10T09:19:27;12.80;;;4.80;;
51925;SDS011;37952;51.938;15.480;2023-06-10T09:22:31;13.30;;;4.80;;
51925;SDS011;37952;51.938;15.480;2023-06-10T09:25:36;6.60;;;4.30;;
51925;SDS011;37952;51.938;15.480;2023-06-10T09:28:41;6.60;;;5.10;;
51925;SDS011;37952;51.938;15.480;2023-06-10T09:31:46;5.00;;;4.60;;
51925;SDS011;37952;51.938;15.480;2023-06-10T09:34:49;5.80;;;4.90;;
51925;SDS011;37952;51.938;15.480;2023-06-10T09:37:56;7.00;;;5.20;;
51925;SDS011;37952;51.938;15.480;2023-06-10T09:41:00;9.50;;;4.70;;
51925;SDS011;37952;51.938;15.480;2023-06-10T09:44:05;7.50;;;4.90;;
51925;SDS011;37952;51.938;15.480;2023-06-10T09:47:19;6.30;;;5.00;;
51925;SDS011;37952;51.938;15.480;2023-06-10T09:50:25;8.70;;;4.40;;
51925;SDS011;37952;51.938;15.480;2023-06-10T09:53:32;10.00;;;4.40;;
51925;SDS011;37952;51.938;15.480;2023-06-10T09:56:36;8.80;;;4.80;;
51925;SDS011;37952;51.938;15.480;2023-06-10T09:59:39;6.70;;;4.30;;
51925;SDS011;37952;51.938;15.480;2023-06-10T10:02:47;5.90;;;4.50;;
51925;SDS011;37952;51.938;15.480;2023-06-10T10:05:57;5.40;;;4.40;;
51925;SDS011;37952;51.938;15.480;2023-06-10T10:09:02;11.40;;;4.70;;
51925;SDS011;37952;51.938;15.480;2023-06-10T10:12:10;5.40;;;4.40;;
51925;SDS011;37952;51.938;15.480;2023-06-10T10:15:15;5.40;;;4.90;;
51925;SDS011;37952;51.938;15.480;2023-06-10T10:18:20;6.90;;;3.90;;
51925;SDS011;37952;51.938;15.480;2023-06-10T10:21:35;8.10;;;4.00;;
51925;SDS011;37952;51.938;15.480;2023-06-10T10:24:44;4.80;;;3.80;;
51925;SDS011;37952;51.938;15.480;2023-06-10T10:30:59;10.10;;;3.90;;
51925;SDS011;37952;51.938;15.480;2023-06-10T10:34:12;5.70;;;3.90;;
51925;SDS011;37952;51.938;15.480;2023-06-10T10:37:20;11.30;;;4.30;;
51925;SDS011;37952;51.938;15.480;2023-06-10T10:40:23;10.70;;;4.30;;
51925;SDS011;37952;51.938;15.480;2023-06-10T10:43:28;4.00;;;3.80;;
51925;SDS011;37952;51.938;15.480;2023-06-10T10:46:53;5.30;;;4.10;;
51925;SDS011;37952;51.938;15.480;2023-06-10T10:49:56;6.10;;;3.90;;
51925;SDS011;37952;51.938;15.480;2023-06-10T10:53:03;4.00;;;3.60;;
51925;SDS011;37952;51.938;15.480;2023-06-10T10:56:12;3.40;;;3.20;;
51925;SDS011;37952;51.938;15.480;2023-06-10T10:59:16;3.90;;;3.40;;
51925;SDS011;37952;51.938;15.480;2023-06-10T11:02:35;11.10;;;3.30;;
51925;SDS011;37952;51.938;15.480;2023-06-10T11:05:49;4.20;;;3.70;;
51925;SDS011;37952;51.938;15.480;2023-06-10T11:08:52;6.40;;;3.20;;
51925;SDS011;37952;51.938;15.480;2023-06-10T11:11:59;4.10;;;3.30;;
51925;SDS011;37952;51.938;15.480;2023-06-10T11:15:02;4.80;;;3.20;;
51925;SDS011;37952;51.938;15.480;2023-06-10T11:18:09;3.40;;;3.20;;
51925;SDS011;37952;51.938;15.480;2023-06-10T11:21:14;5.50;;;3.10;;
51925;SDS011;37952;51.938;15.480;2023-06-10T11:24:19;3.70;;;3.10;;
51925;SDS011;37952;51.938;15.480;2023-06-10T11:27:22;5.70;;;3.40;;
51925;SDS011;37952;51.938;15.480;2023-06-10T11:30:34;6.60;;;4.60;;
51925;SDS011;37952;51.938;15.480;2023-06-10T11:33:38;6.90;;;3.20;;
51925;SDS011;37952;51.938;15.480;2023-06-10T11:36:41;3.40;;;3.20;;
51925;SDS011;37952;51.938;15.480;2023-06-10T11:39:51;3.80;;;3.40;;
51925;SDS011;37952;51.938;15.480;2023-06-10T11:45:58;3.10;;;2.90;;
51925;SDS011;37952;51.938;15.480;2023-06-10T11:49:02;4.90;;;3.40;;
51925;SDS011;37952;51.938;15.480;2023-06-10T11:52:06;3.50;;;2.70;;
51925;SDS011;37952;51.938;15.480;2023-06-10T11:55:09;3.50;;;3.00;;
51925;SDS011;37952;51.938;15.480;2023-06-10T11:58:14;8.90;;;3.30;;
51925;SDS011;37952;51.938;15.480;2023-06-10T12:01:23;3.30;;;3.00;;
51925;SDS011;37952;51.938;15.480;2023-06-10T12:04:31;2.80;;;2.40;;
51925;SDS011;37952;51.938;15.480;2023-06-10T12:07:33;3.50;;;3.00;;
51925;SDS011;37952;51.938;15.480;2023-06-10T12:10:40;5.40;;;2.90;;
51925;SDS011;37952;51.938;15.480;2023-06-10T12:13:46;9.80;;;2.50;;
51925;SDS011;37952;51.938;15.480;2023-06-10T12:16:53;3.00;;;2.80;;
51925;SDS011;37952;51.938;15.480;2023-06-10T12:19:56;3.30;;;2.90;;
51925;SDS011;37952;51.938;15.480;2023-06-10T12:22:59;4.40;;;3.00;;
51925;SDS011;37952;51.938;15.480;2023-06-10T12:26:11;2.80;;;2.60;;
51925;SDS011;37952;51.938;15.480;2023-06-10T12:29:20;4.20;;;2.80;;
51925;SDS011;37952;51.938;15.480;2023-06-10T12:32:36;5.00;;;2.60;;
51925;SDS011;37952;51.938;15.480;2023-06-10T12:35:47;2.90;;;2.60;;
51925;SDS011;37952;51.938;15.480;2023-06-10T12:38:51;7.20;;;2.70;;
51925;SDS011;37952;51.938;15.480;2023-06-10T12:41:55;4.00;;;3.00;;
51925;SDS011;37952;51.938;15.480;2023-06-10T12:44:57;9.70;;;2.80;;
51925;SDS011;37952;51.938;15.480;2023-06-10T12:51:25;3.90;;;2.90;;
51925;SDS011;37952;51.938;15.480;2023-06-10T12:54:28;3.50;;;2.80;;
51925;SDS011;37952;51.938;15.480;2023-06-10T12:57:31;5.40;;;2.80;;
51925;SDS011;37952;51.938;15.480;2023-06-10T13:00:34;3.00;;;2.70;;
51925;SDS011;37952;51.938;15.480;2023-06-10T13:03:38;2.90;;;2.60;;
51925;SDS011;37952;51.938;15.480;2023-06-10T13:06:41;3.10;;;2.80;;
51925;SDS011;37952;51.938;15.480;2023-06-10T13:09:44;4.70;;;2.50;;
51925;SDS011;37952;51.938;15.480;2023-06-10T13:12:51;3.30;;;2.80;;
51925;SDS011;37952;51.938;15.480;2023-06-10T13:15:55;3.90;;;2.70;;
51925;SDS011;37952;51.938;15.480;2023-06-10T13:18:58;7.40;;;2.90;;
51925;SDS011;37952;51.938;15.480;2023-06-10T13:22:01;6.80;;;2.50;;
51925;SDS011;37952;51.938;15.480;2023-06-10T13:25:09;9.30;;;4.80;;
51925;SDS011;37952;51.938;15.480;2023-06-10T13:28:13;7.60;;;3.20;;
51925;SDS011;37952;51.938;15.480;2023-06-10T13:31:15;3.30;;;3.00;;
51925;SDS011;37952;51.938;15.480;2023-06-10T13:34:18;2.80;;;2.60;;
51925;SDS011;37952;51.938;15.480;2023-06-10T13:37:21;2.80;;;2.70;;
51925;SDS011;37952;51.938;15.480;2023-06-10T13:40:24;4.30;;;2.60;;
51925;SDS011;37952;51.938;15.480;2023-06-10T13:43:27;4.50;;;2.50;;
51925;SDS011;37952;51.938;15.480;2023-06-10T13:46:30;2.50;;;2.30;;
51925;SDS011;37952;51.938;15.480;2023-06-10T13:49:32;2.80;;;2.60;;
51925;SDS011;37952;51.938;15.480;2023-06-10T13:52:35;5.00;;;2.50;;
51925;SDS011;37952;51.938;15.480;2023-06-10T13:55:38;3.80;;;2.50;;
51925;SDS011;37952;51.938;15.480;2023-06-10T13:58:41;4.00;;;2.40;;
51925;SDS011;37952;51.938;15.480;2023-06-10T14:01:45;4.20;;;2.90;;
51925;SDS011;37952;51.938;15.480;2023-06-10T14:04:48;3.50;;;2.80;;
51925;SDS011;37952;51.938;15.480;2023-06-10T14:07:51;4.20;;;2.90;;
51925;SDS011;37952;51.938;15.480;2023-06-10T14:10:53;2.60;;;2.50;;
51925;SDS011;37952;51.938;15.480;2023-06-10T14:13:56;2.90;;;2.70;;
51925;SDS011;37952;51.938;15.480;2023-06-10T14:17:00;2.60;;;2.40;;
51925;SDS011;37952;51.938;15.480;2023-06-10T14:20:03;3.60;;;2.50;;
51925;SDS011;37952;51.938;15.480;2023-06-10T14:23:08;2.40;;;2.30;;
51925;SDS011;37952;51.938;15.480;2023-06-10T14:26:10;2.70;;;2.50;;
51925;SDS011;37952;51.938;15.480;2023-06-10T14:29:14;2.50;;;2.40;;
51925;SDS011;37952;51.938;15.480;2023-06-10T14:32:16;2.80;;;2.50;;
51925;SDS011;37952;51.938;15.480;2023-06-10T14:35:19;2.60;;;2.40;;
51925;SDS011;37952;51.938;15.480;2023-06-10T14:38:24;2.70;;;2.50;;
51925;SDS011;37952;51.938;15.480;2023-06-10T14:41:26;3.50;;;2.70;;
51925;SDS011;37952;51.938;15.480;2023-06-10T14:44:29;3.10;;;2.80;;
51925;SDS011;37952;51.938;15.480;2023-06-10T14:47:32;3.80;;;2.70;;
51925;SDS011;37952;51.938;15.480;2023-06-10T14:50:35;3.40;;;2.40;;
51925;SDS011;37952;51.938;15.480;2023-06-10T14:53:38;3.90;;;2.80;;
51925;SDS011;37952;51.938;15.480;2023-06-10T14:56:41;3.10;;;2.90;;
51925;SDS011;37952;51.938;15.480;2023-06-10T14:59:44;2.50;;;2.40;;
51925;SDS011;37952;51.938;15.480;2023-06-10T15:02:47;7.30;;;2.90;;
51925;SDS011;37952;51.938;15.480;2023-06-10T15:05:50;2.90;;;2.80;;
51925;SDS011;37952;51.938;15.480;2023-06-10T15:08:53;6.90;;;3.00;;
51925;SDS011;37952;51.938;15.480;2023-06-10T15:11:56;3.90;;;2.70;;
51925;SDS011;37952;51.938;15.480;2023-06-10T15:14:59;3.40;;;2.90;;
51925;SDS011;37952;51.938;15.480;2023-06-10T15:18:01;3.10;;;2.90;;
51925;SDS011;37952;51.938;15.480;2023-06-10T15:21:05;3.40;;;2.60;;
51925;SDS011;37952;51.938;15.480;2023-06-10T15:24:07;4.60;;;2.70;;
51925;SDS011;37952;51.938;15.480;2023-06-10T15:27:10;6.30;;;2.70;;
51925;SDS011;37952;51.938;15.480;2023-06-10T15:30:13;5.60;;;2.60;;
51925;SDS011;37952;51.938;15.480;2023-06-10T15:33:16;3.00;;;2.70;;
51925;SDS011;37952;51.938;15.480;2023-06-10T15:36:18;4.70;;;2.80;;
51925;SDS011;37952;51.938;15.480;2023-06-10T15:39:22;5.00;;;3.00;;
51925;SDS011;37952;51.938;15.480;2023-06-10T15:42:27;3.20;;;2.90;;
51925;SDS011;37952;51.938;15.480;2023-06-10T15:45:29;6.50;;;3.00;;
51925;SDS011;37952;51.938;15.480;2023-06-10T15:48:36;2.90;;;2.60;;
51925;SDS011;37952;51.938;15.480;2023-06-10T15:51:39;2.90;;;2.70;;
51925;SDS011;37952;51.938;15.480;2023-06-10T15:54:49;2.60;;;2.40;;
51925;SDS011;37952;51.938;15.480;2023-06-10T15:57:52;3.10;;;2.50;;
51925;SDS011;37952;51.938;15.480;2023-06-10T16:00:55;2.80;;;2.70;;
51925;SDS011;37952;51.938;15.480;2023-06-10T16:03:57;3.10;;;2.70;;
51925;SDS011;37952;51.938;15.480;2023-06-10T16:07:00;3.70;;;2.20;;
51925;SDS011;37952;51.938;15.480;2023-06-10T16:10:03;3.40;;;2.20;;
51925;SDS011;37952;51.938;15.480;2023-06-10T16:13:06;2.60;;;2.40;;
51925;SDS011;37952;51.938;15.480;2023-06-10T16:16:09;3.30;;;2.70;;
51925;SDS011;37952;51.938;15.480;2023-06-10T16:19:12;5.70;;;2.60;;
51925;SDS011;37952;51.938;15.480;2023-06-10T16:22:19;2.60;;;2.40;;
51925;SDS011;37952;51.938;15.480;2023-06-10T16:25:22;2.90;;;2.60;;
51925;SDS011;37952;51.938;15.480;2023-06-10T16:28:25;2.60;;;2.40;;
51925;SDS011;37952;51.938;15.480;2023-06-10T16:31:27;2.60;;;2.40;;
51925;SDS011;37952;51.938;15.480;2023-06-10T16:34:30;3.80;;;2.40;;
51925;SDS011;37952;51.938;15.480;2023-06-10T16:37:33;3.00;;;2.30;;
51925;SDS011;37952;51.938;15.480;2023-06-10T16:40:35;4.80;;;2.60;;
51925;SDS011;37952;51.938;15.480;2023-06-10T16:43:38;3.40;;;2.20;;
51925;SDS011;37952;51.938;15.480;2023-06-10T16:46:41;2.80;;;2.60;;
51925;SDS011;37952;51.938;15.480;2023-06-10T16:49:44;6.30;;;2.50;;
51925;SDS011;37952;51.938;15.480;2023-06-10T16:52:50;3.30;;;2.30;;
51925;SDS011;37952;51.938;15.480;2023-06-10T16:55:52;2.60;;;2.40;;
51925;SDS011;37952;51.938;15.480;2023-06-10T16:58:55;2.50;;;2.30;;
51925;SDS011;37952;51.938;15.480;2023-06-10T17:01:58;11.50;;;2.70;;
51925;SDS011;37952;51.938;15.480;2023-06-10T17:05:05;4.80;;;2.40;;
51925;SDS011;37952;51.938;15.480;2023-06-10T17:08:08;2.60;;;2.40;;
51925;SDS011;37952;51.938;15.480;2023-06-10T17:11:11;3.70;;;2.10;;
51925;SDS011;37952;51.938;15.480;2023-06-10T17:14:14;6.50;;;2.30;;
51925;SDS011;37952;51.938;15.480;2023-06-10T17:17:17;3.30;;;2.10;;
51925;SDS011;37952;51.938;15.480;2023-06-10T17:20:20;2.10;;;2.00;;
51925;SDS011;37952;51.938;15.480;2023-06-10T17:23:23;2.10;;;2.00;;
51925;SDS011;37952;51.938;15.480;2023-06-10T17:26:26;3.10;;;2.50;;
51925;SDS011;37952;51.938;15.480;2023-06-10T17:29:29;2.80;;;2.20;;
51925;SDS011;37952;51.938;15.480;2023-06-10T17:32:34;5.90;;;1.90;;
51925;SDS011;37952;51.938;15.480;2023-06-10T17:35:37;3.60;;;2.10;;
51925;SDS011;37952;51.938;15.480;2023-06-10T17:38:39;2.30;;;2.10;;
51925;SDS011;37952;51.938;15.480;2023-06-10T17:41:42;5.10;;;2.20;;
51925;SDS011;37952;51.938;15.480;2023-06-10T17:44:45;2.70;;;2.20;;
51925;SDS011;37952;51.938;15.480;2023-06-10T17:47:48;2.30;;;2.10;;
51925;SDS011;37952;51.938;15.480;2023-06-10T17:50:50;6.00;;;2.30;;
51925;SDS011;37952;51.938;15.480;2023-06-10T17:53:53;4.80;;;2.10;;
51925;SDS011;37952;51.938;15.480;2023-06-10T17:56:56;2.30;;;2.20;;
51925;SDS011;37952;51.938;15.480;2023-06-10T17:59:59;2.30;;;2.10;;
51925;SDS011;37952;51.938;15.480;2023-06-10T18:03:02;2.10;;;2.00;;
51925;SDS011;37952;51.938;15.480;2023-06-10T18:06:05;6.10;;;2.40;;
51925;SDS011;37952;51.938;15.480;2023-06-10T18:09:08;6.50;;;2.50;;
51925;SDS011;37952;51.938;15.480;2023-06-10T18:12:14;4.40;;;2.30;;
51925;SDS011;37952;51.938;15.480;2023-06-10T18:15:17;2.70;;;2.20;;
51925;SDS011;37952;51.938;15.480;2023-06-10T18:18:19;2.50;;;2.30;;
51925;SDS011;37952;51.938;15.480;2023-06-10T18:21:22;2.80;;;2.30;;
51925;SDS011;37952;51.938;15.480;2023-06-10T18:24:25;2.80;;;2.20;;
51925;SDS011;37952;51.938;15.480;2023-06-10T18:27:28;7.10;;;2.50;;
51925;SDS011;37952;51.938;15.480;2023-06-10T18:30:30;2.30;;;2.10;;